Sitc Kaohsiung — 3EKK6 — position and weather

sailwx.info

Track history (hours):
 
Tides and Currents Weather Stations Pressure Air Temp Water Temp Dewpoint Dewpoint Depression Visibility Wind Speed Wind Dir Waves Ship Positions

Sitc Kaohsiung

Last reported at 2017-Nov-20 00:25 UTC. Time now 2017-Nov-23 07:40 UTC.
Position N 22°27' E 115°20'.

Length 140 m; draft 6.9 m.

Type: Ship (hazmat cat A). MMSI: 372748000.

Date/timePositionNaut miles runAvg speedWind from/ knotsBaromVisibWave heightAir tempDewpointWater temp
2017-Nov-20 00:25N 22°27' E 115°20'512.8
2017-Nov-20 00:01N 22°25' E 115°15'813.0
2017-Nov-19 23:25N 22°22' E 115°07'513.2
2017-Nov-19 23:01N 22°21' E 115°01'713.0
2017-Nov-19 22:30N 22°18' E 114°55'612.7
2017-Nov-19 22:00N 22°16' E 114°48'612.8
2017-Nov-19 21:30N 22°14' E 114°42'912.9
2017-Nov-19 20:46N 22°10' E 114°32'312.8
2017-Nov-19 20:31N 22°09' E 114°29'4013.2
2017-Nov-19 17:28N 21°54' E 113°49'613.4
2017-Nov-19 17:00N 21°51' E 113°43'713.2
2017-Nov-19 16:30N 21°48' E 113°37'612.9
2017-Nov-19 16:00N 21°44' E 113°31'612.7
2017-Nov-19 15:30N 21°41' E 113°25'712.7
2017-Nov-19 14:58N 21°38' E 113°18'7011.6
2017-Nov-19 08:57N 21°11' E 112°09'711.2
2017-Nov-19 08:18N 21°09' E 112°02'411.6
2017-Nov-19 07:57N 21°07' E 111°58'  
2017-Nov-16 12:02N 20°16' E 111°04'415.0
2017-Nov-16 11:47N 20°17' E 111°08'2714.9
2017-Nov-16 09:59N 20°30' E 111°33'814.9
2017-Nov-16 09:26N 20°34' E 111°41'714.9
2017-Nov-16 08:57N 20°38' E 111°47'714.9
2017-Nov-16 08:30N 20°41' E 111°53'814.9
2017-Nov-16 07:58N 20°45' E 112°01'715.0
2017-Nov-16 07:29N 20°48' E 112°08'714.9
2017-Nov-16 07:00N 20°51' E 112°15'815.0
2017-Nov-16 06:29N 20°54' E 112°22'714.9
2017-Nov-16 06:00N 20°59' E 112°29'715.1
2017-Nov-16 05:30N 21°03' E 112°35'815.1
2017-Nov-16 05:01N 21°07' E 112°42'815.1
2017-Nov-16 04:30N 21°10' E 112°49'815.2
2017-Nov-16 04:00N 21°14' E 112°56'815.0
2017-Nov-16 03:27N 21°18' E 113°04'1115.1
2017-Nov-16 02:44N 21°24' E 113°14'415.0
2017-Nov-16 02:28N 21°26' E 113°18'815.0
2017-Nov-16 01:58N 21°30' E 113°25'715.0
2017-Nov-16 01:30N 21°32' E 113°32'915.1
2017-Nov-16 00:55N 21°37' E 113°40'2115.1
2017-Nov-15 23:31N 21°47' E 113°60'115.4
2017-Nov-15 23:28N 21°47' E 114°01'715.4
2017-Nov-15 23:00N 21°50' E 114°08'915.3
2017-Nov-15 22:26N 21°54' E 114°16'815.3
2017-Nov-15 21:56N 21°57' E 114°24'615.2
2017-Nov-15 21:30N 22°01' E 114°29'815.3
2017-Nov-15 20:59N 22°04' E 114°37'715.3
2017-Nov-15 20:30N 22°07' E 114°44'815.2
2017-Nov-15 20:01N 22°10' E 114°52'815.1
2017-Nov-15 19:30N 22°13' E 114°59'715.1
2017-Nov-15 19:00N 22°17' E 115°06'815.1
2017-Nov-15 18:30N 22°21' E 115°14'815.4
2017-Nov-15 18:01N 22°23' E 115°21'18514.7
2017-Nov-15 05:23N 23°56' E 118°16'615.7
2017-Nov-15 05:00N 24°00' E 118°21'815.8
2017-Nov-15 04:30N 24°05' E 118°27'816.0
2017-Nov-15 04:01N 24°11' E 118°34'815.8
2017-Nov-15 03:31N 24°16' E 118°40'  
Track history (hours):
 
Tides and Currents Weather Stations Pressure Air Temp Water Temp Dewpoint Dewpoint Depression Visibility Wind Speed Wind Dir Waves Ship Positions

Sitc Kaohsiung

Last reported at 2017-Nov-20 00:25 UTC. Time now 2017-Nov-23 07:40 UTC.
Position N 22°27' E 115°20'.

Length 140 m; draft 6.9 m.

Type: Ship (hazmat cat A). MMSI: 372748000.

Date/timePositionNaut miles runAvg speedWind from/ knotsBaromVisibWave heightAir tempDewpointWater temp
2017-Nov-20 00:25N 22°27' E 115°20'512.8
2017-Nov-20 00:01N 22°25' E 115°15'813.0
2017-Nov-19 23:25N 22°22' E 115°07'513.2
2017-Nov-19 23:01N 22°21' E 115°01'713.0
2017-Nov-19 22:30N 22°18' E 114°55'612.7
2017-Nov-19 22:00N 22°16' E 114°48'612.8
2017-Nov-19 21:30N 22°14' E 114°42'912.9
2017-Nov-19 20:46N 22°10' E 114°32'312.8
2017-Nov-19 20:31N 22°09' E 114°29'4013.2
2017-Nov-19 17:28N 21°54' E 113°49'613.4
2017-Nov-19 17:00N 21°51' E 113°43'713.2
2017-Nov-19 16:30N 21°48' E 113°37'612.9
2017-Nov-19 16:00N 21°44' E 113°31'612.7
2017-Nov-19 15:30N 21°41' E 113°25'712.7
2017-Nov-19 14:58N 21°38' E 113°18'7011.6
2017-Nov-19 08:57N 21°11' E 112°09'711.2
2017-Nov-19 08:18N 21°09' E 112°02'411.6
2017-Nov-19 07:57N 21°07' E 111°58'  
2017-Nov-16 12:02N 20°16' E 111°04'415.0
2017-Nov-16 11:47N 20°17' E 111°08'2714.9
2017-Nov-16 09:59N 20°30' E 111°33'814.9
2017-Nov-16 09:26N 20°34' E 111°41'714.9
2017-Nov-16 08:57N 20°38' E 111°47'714.9
2017-Nov-16 08:30N 20°41' E 111°53'814.9
2017-Nov-16 07:58N 20°45' E 112°01'715.0
2017-Nov-16 07:29N 20°48' E 112°08'714.9
2017-Nov-16 07:00N 20°51' E 112°15'815.0
2017-Nov-16 06:29N 20°54' E 112°22'714.9
2017-Nov-16 06:00N 20°59' E 112°29'715.1
2017-Nov-16 05:30N 21°03' E 112°35'815.1
2017-Nov-16 05:01N 21°07' E 112°42'815.1
2017-Nov-16 04:30N 21°10' E 112°49'815.2
2017-Nov-16 04:00N 21°14' E 112°56'815.0
2017-Nov-16 03:27N 21°18' E 113°04'1115.1
2017-Nov-16 02:44N 21°24' E 113°14'415.0
2017-Nov-16 02:28N 21°26' E 113°18'815.0
2017-Nov-16 01:58N 21°30' E 113°25'715.0
2017-Nov-16 01:30N 21°32' E 113°32'915.1
2017-Nov-16 00:55N 21°37' E 113°40'2115.1
2017-Nov-15 23:31N 21°47' E 113°60'115.4
2017-Nov-15 23:28N 21°47' E 114°01'715.4
2017-Nov-15 23:00N 21°50' E 114°08'915.3
2017-Nov-15 22:26N 21°54' E 114°16'815.3
2017-Nov-15 21:56N 21°57' E 114°24'615.2
2017-Nov-15 21:30N 22°01' E 114°29'815.3
2017-Nov-15 20:59N 22°04' E 114°37'715.3
2017-Nov-15 20:30N 22°07' E 114°44'815.2
2017-Nov-15 20:01N 22°10' E 114°52'815.1
2017-Nov-15 19:30N 22°13' E 114°59'715.1
2017-Nov-15 19:00N 22°17' E 115°06'815.1
2017-Nov-15 18:30N 22°21' E 115°14'815.4
2017-Nov-15 18:01N 22°23' E 115°21'18514.7
2017-Nov-15 05:23N 23°56' E 118°16'615.7
2017-Nov-15 05:00N 24°00' E 118°21'815.8
2017-Nov-15 04:30N 24°05' E 118°27'816.0
2017-Nov-15 04:01N 24°11' E 118°34'815.8
2017-Nov-15 03:31N 24°16' E 118°40'  

Dump ship's entire track history